Kenansville, North Carolina
Current Conditions -  °F | °C
As of 7:15 PM on Friday 21 Nov 2014 (Local Time) from KDPL Reporting Station
Clear Clear  
Wind Chill: 36°   Ceiling: Unl
Heat Index: 36°   Visibility: 10mi
Dew Point: 13°   Wind: 3mph
Humidity: 40%   Direction: 10°N
Pressure: 30.53"   Gusts: NA
Location:  34.96°N, 77.96°W
Report Text: KDPL 220015Z AUTO 01003KT 10SM CLR 02/M10 A3053 RMK AO2 T00211103
Loading
Personal Weather Stations






























Interactive Weather Map New forecast layout! Learn more

10-Day Weather Forecast

Advertisements
Track Severe Weather on mobile